createdAt,value
2022-09-09T00:00:21.171Z,8.00
2022-09-09T00:03:27.871Z,4.47
2022-09-09T00:06:45.194Z,3.87
2022-09-09T00:09:23.416Z,4.80
2022-09-09T00:12:46.239Z,8.77
2022-09-09T00:15:26.814Z,5.90
2022-09-09T00:18:59.702Z,9.07
2022-09-09T00:21:40.324Z,4.40
2022-09-09T00:24:36.491Z,7.70
2022-09-09T00:27:30.245Z,9.13
2022-09-09T00:30:24.853Z,7.20
2022-09-09T00:33:13.693Z,7.47
2022-09-09T00:35:54.426Z,6.40
2022-09-09T00:38:44.960Z,6.03
2022-09-09T00:41:59.184Z,7.43
2022-09-09T00:44:39.224Z,5.90
2022-09-09T00:47:50.852Z,6.47
2022-09-09T00:51:04.817Z,4.63
2022-09-09T00:54:44.246Z,8.70
2022-09-09T00:57:34.497Z,6.00
2022-09-09T01:00:29.909Z,4.67
2022-09-09T01:03:46.613Z,9.87
2022-09-09T01:06:39.868Z,5.73
2022-09-09T01:09:47.185Z,9.07
2022-09-09T01:12:53.229Z,8.20
2022-09-09T01:15:31.767Z,4.77
2022-09-09T01:18:18.564Z,4.83
2022-09-09T01:21:10.727Z,4.97
2022-09-09T01:24:39.607Z,5.00
2022-09-09T01:27:19.354Z,5.73
2022-09-09T01:29:48.180Z,10.93
2022-09-09T01:32:48.193Z,4.80
2022-09-09T01:36:04.853Z,6.37
2022-09-09T01:38:40.606Z,10.97
2022-09-09T01:41:08.326Z,7.03
2022-09-09T01:43:45.727Z,6.97
2022-09-09T01:46:16.213Z,5.63
2022-09-09T01:48:46.736Z,5.83
2022-09-09T01:51:14.530Z,5.80
2022-09-09T01:53:47.017Z,9.00
2022-09-09T01:56:50.536Z,7.03
2022-09-09T02:00:02.651Z,6.77
2022-09-09T02:03:34.813Z,5.50
2022-09-09T02:06:39.916Z,4.70
2022-09-09T02:09:27.252Z,8.93
2022-09-09T02:12:18.419Z,4.30
2022-09-09T02:15:15.357Z,5.87
2022-09-09T02:17:54.248Z,6.60
2022-09-09T02:20:30.555Z,6.67
2022-09-09T02:23:03.950Z,9.07
2022-09-09T02:25:35.427Z,11.63
2022-09-09T02:28:16.953Z,6.83
2022-09-09T02:30:49.056Z,9.03
2022-09-09T02:33:18.545Z,10.33
2022-09-09T02:35:57.535Z,10.77
2022-09-09T02:38:37.474Z,6.30
2022-09-09T02:41:11.260Z,6.60
2022-09-09T02:43:40.071Z,10.10
2022-09-09T02:46:48.950Z,5.97
2022-09-09T02:49:31.950Z,5.60
2022-09-09T02:52:16.487Z,8.13
2022-09-09T02:54:45.946Z,6.13
2022-09-09T02:57:31.134Z,8.20
2022-09-09T03:00:01.405Z,7.10
2022-09-09T03:02:31.448Z,6.43
2022-09-09T03:05:04.932Z,6.20
2022-09-09T03:07:32.678Z,5.97
2022-09-09T03:10:00.516Z,4.20
2022-09-09T03:12:29.124Z,6.53
2022-09-09T03:14:56.726Z,8.83
2022-09-09T03:17:25.795Z,8.63
2022-09-09T03:19:56.139Z,5.90
2022-09-09T03:22:23.879Z,6.60
2022-09-09T03:24:51.858Z,7.63
2022-09-09T03:27:20.598Z,6.40
2022-09-09T03:29:52.121Z,6.60
2022-09-09T03:32:23.726Z,5.00
2022-09-09T03:34:51.700Z,8.60
2022-09-09T03:37:21.255Z,5.57
2022-09-09T03:39:50.800Z,10.47
2022-09-09T03:42:20.279Z,9.87
2022-09-09T03:44:52.410Z,6.70
2022-09-09T03:47:23.700Z,9.40
2022-09-09T03:49:55.355Z,6.47
2022-09-09T03:52:26.073Z,8.07
2022-09-09T03:54:56.100Z,9.03
2022-09-09T03:57:23.878Z,8.27
2022-09-09T03:59:51.598Z,8.20
2022-09-09T04:02:19.944Z,8.10
2022-09-09T04:04:47.990Z,11.33
2022-09-09T04:07:16.996Z,9.57
2022-09-09T04:09:45.481Z,5.90
2022-09-09T04:12:15.385Z,7.27
2022-09-09T04:14:43.315Z,12.23
2022-09-09T04:17:12.164Z,5.93
2022-09-09T04:19:39.994Z,7.00
2022-09-09T04:22:07.698Z,6.50
2022-09-09T04:24:36.305Z,7.70
2022-09-09T04:27:04.467Z,10.23
2022-09-09T04:29:35.446Z,5.43
2022-09-09T04:32:03.583Z,11.80
2022-09-09T04:34:32.364Z,7.63
2022-09-09T04:37:00.686Z,13.13
2022-09-09T04:39:28.630Z,6.13
2022-09-09T04:41:57.600Z,17.00
2022-09-09T04:44:25.537Z,6.50
2022-09-09T04:46:53.322Z,15.03
2022-09-09T04:49:21.423Z,28.70
2022-09-09T04:51:51.146Z,41.07
2022-09-09T04:54:19.365Z,56.03
2022-09-09T04:56:47.965Z,64.30
2022-09-09T04:59:15.594Z,62.67
2022-09-09T05:01:47.818Z,64.33
2022-09-09T05:04:18.222Z,63.23
2022-09-09T05:06:47.066Z,55.70
2022-09-09T05:09:15.097Z,56.03
2022-09-09T05:11:42.966Z,52.67
2022-09-09T05:14:18.312Z,50.50
2022-09-09T05:16:50.728Z,53.20
2022-09-09T05:19:20.857Z,48.63
2022-09-09T05:21:51.132Z,46.63
2022-09-09T05:24:24.455Z,50.60
2022-09-09T05:26:55.214Z,40.87
2022-09-09T05:29:22.890Z,37.70
2022-09-09T05:31:50.799Z,27.23
2022-09-09T05:34:21.902Z,29.50
2022-09-09T05:36:51.100Z,20.63
2022-09-09T05:39:19.366Z,20.33
2022-09-09T05:41:47.219Z,16.00
2022-09-09T05:44:14.863Z,16.90
2022-09-09T05:46:42.619Z,19.17
2022-09-09T05:49:11.343Z,17.50
2022-09-09T05:51:41.337Z,13.10
2022-09-09T05:54:16.041Z,13.80
2022-09-09T05:56:51.118Z,16.53
2022-09-09T05:59:19.809Z,14.87
2022-09-09T06:01:48.188Z,17.70
2022-09-09T06:04:23.617Z,11.57
2022-09-09T06:06:51.580Z,14.63
2022-09-09T06:09:22.113Z,10.30
2022-09-09T06:11:50.893Z,14.40
2022-09-09T06:14:19.178Z,11.70
2022-09-09T06:16:49.911Z,11.90
2022-09-09T06:19:28.783Z,10.43
2022-09-09T06:21:59.944Z,13.80
2022-09-09T06:24:31.333Z,9.03
2022-09-09T06:27:00.461Z,9.43
2022-09-09T06:29:32.456Z,10.67
2022-09-09T06:32:00.299Z,7.67
2022-09-09T06:34:29.391Z,8.63
2022-09-09T06:36:59.514Z,10.17
2022-09-09T06:39:32.825Z,7.37
2022-09-09T06:42:00.861Z,8.83
2022-09-09T06:44:47.014Z,6.90
2022-09-09T06:47:23.624Z,6.80
2022-09-09T06:49:52.489Z,4.80
2022-09-09T06:52:20.436Z,6.83
2022-09-09T06:54:48.690Z,10.27
2022-09-09T07:00:10.969Z,8.37
2022-09-09T07:02:40.257Z,5.43
2022-09-09T07:05:10.544Z,6.03
2022-09-09T07:07:39.430Z,4.40
2022-09-09T07:10:08.673Z,9.17
2022-09-09T07:12:38.719Z,11.00
2022-09-09T07:15:11.082Z,6.80
2022-09-09T07:17:42.045Z,6.10
2022-09-09T07:20:10.266Z,10.00
2022-09-09T07:22:37.939Z,8.40
2022-09-09T07:25:07.114Z,5.83
2022-09-09T07:27:35.932Z,6.80
2022-09-09T07:30:04.794Z,8.00
2022-09-09T07:32:34.363Z,7.47
2022-09-09T07:35:02.872Z,5.47
2022-09-09T07:37:30.419Z,7.40
2022-09-09T07:39:59.872Z,10.10
2022-09-09T07:42:27.645Z,6.97
2022-09-09T07:44:56.129Z,7.37
2022-09-09T07:47:25.855Z,7.00
2022-09-09T07:49:53.493Z,8.43
2022-09-09T07:52:26.745Z,5.40
2022-09-09T07:54:58.120Z,6.50
2022-09-09T07:57:26.074Z,4.60
2022-09-09T07:59:55.510Z,2.90
2022-09-09T08:02:27.036Z,4.50
2022-09-09T08:04:54.696Z,9.10
2022-09-09T08:07:23.455Z,5.60
2022-09-09T08:09:56.747Z,5.57
2022-09-09T08:12:29.268Z,7.93
2022-09-09T08:14:58.026Z,6.53
2022-09-09T08:17:29.513Z,4.50
2022-09-09T08:19:58.615Z,3.80
2022-09-09T08:22:30.284Z,9.73
2022-09-09T08:24:58.456Z,5.03
2022-09-09T08:27:26.583Z,4.70
2022-09-09T08:29:57.583Z,6.20
2022-09-09T08:32:25.560Z,5.60
2022-09-09T08:34:54.680Z,9.03
2022-09-09T08:37:25.263Z,6.97
2022-09-09T08:39:54.273Z,7.90
2022-09-09T08:42:45.046Z,5.73
2022-09-09T08:46:09.995Z,3.90
2022-09-09T08:49:26.900Z,6.20
2022-09-09T08:51:58.506Z,4.57
2022-09-09T08:54:51.624Z,7.10
2022-09-09T08:57:33.436Z,10.23
2022-09-09T09:00:01.182Z,4.63
2022-09-09T09:03:18.650Z,5.43
2022-09-09T09:06:25.555Z,10.40
2022-09-09T09:09:18.087Z,3.23
2022-09-09T09:12:02.174Z,3.47
2022-09-09T09:14:40.188Z,6.97
2022-09-09T09:17:32.407Z,9.33
2022-09-09T09:20:01.564Z,8.53
2022-09-09T09:22:56.781Z,3.93
2022-09-09T09:25:45.393Z,3.23
2022-09-09T09:28:26.120Z,8.13
2022-09-09T09:31:12.737Z,7.13
2022-09-09T09:33:51.574Z,4.73
2022-09-09T09:36:42.607Z,4.13
2022-09-09T09:42:23.200Z,2.80
2022-09-09T09:44:53.901Z,6.30
2022-09-09T09:47:24.798Z,5.63
2022-09-09T09:50:21.843Z,4.10
2022-09-09T09:53:21.860Z,4.77
2022-09-09T09:56:14.817Z,3.90
2022-09-09T09:58:45.881Z,7.07
2022-09-09T10:01:35.134Z,7.20
2022-09-09T10:04:25.003Z,7.60
2022-09-09T10:06:56.502Z,8.87
2022-09-09T10:09:33.889Z,5.53
2022-09-09T10:13:00.966Z,4.47
2022-09-09T10:16:18.977Z,5.87
2022-09-09T10:19:08.473Z,7.50
2022-09-09T10:22:13.181Z,9.90
2022-09-09T10:25:49.012Z,4.50
2022-09-09T10:29:34.743Z,6.60
2022-09-09T10:32:47.928Z,7.73
2022-09-09T10:36:06.525Z,3.90
2022-09-09T10:38:53.529Z,4.43
2022-09-09T10:42:08.249Z,4.53
2022-09-09T10:45:24.421Z,2.80
2022-09-09T10:48:34.685Z,4.80
2022-09-09T10:52:00.137Z,5.23
2022-09-09T10:55:19.204Z,3.50
2022-09-09T10:57:58.593Z,6.80
2022-09-09T11:00:53.743Z,6.17
2022-09-09T11:03:41.041Z,3.13
2022-09-09T11:06:24.261Z,4.73
2022-09-09T11:08:56.972Z,3.70
2022-09-09T11:12:05.328Z,4.80
2022-09-09T11:14:55.614Z,3.10
2022-09-09T11:17:51.912Z,5.03
2022-09-09T11:20:19.736Z,6.37
2022-09-09T11:23:10.527Z,2.30
2022-09-09T11:25:58.149Z,3.73
2022-09-09T11:29:45.237Z,3.23
2022-09-09T11:32:53.169Z,4.07
2022-09-09T11:36:04.531Z,6.53
2022-09-09T11:38:53.424Z,5.93
2022-09-09T11:41:22.984Z,4.30
2022-09-09T11:43:55.159Z,3.37
2022-09-09T11:46:39.347Z,10.30
2022-09-09T11:49:40.352Z,4.43
2022-09-09T11:52:40.029Z,5.17
2022-09-09T11:55:37.896Z,3.40
2022-09-09T11:58:12.366Z,4.93
2022-09-09T12:00:49.168Z,4.63
2022-09-09T12:03:53.925Z,2.97
2022-09-09T12:07:25.553Z,3.67
2022-09-09T12:10:39.797Z,3.80
2022-09-09T12:13:21.576Z,3.77
2022-09-09T12:16:00.484Z,5.83
2022-09-09T12:18:40.611Z,4.47
2022-09-09T12:21:34.498Z,3.10
2022-09-09T12:24:37.665Z,5.43
2022-09-09T12:27:35.037Z,3.10
2022-09-09T12:30:17.542Z,4.27
2022-09-09T12:32:47.906Z,5.97
2022-09-09T12:35:31.763Z,4.37
2022-09-09T12:38:08.215Z,3.77
2022-09-09T12:40:36.728Z,4.53
2022-09-09T12:43:25.070Z,4.10
2022-09-09T12:46:09.743Z,3.87
2022-09-09T12:48:46.646Z,4.03
2022-09-09T12:51:32.653Z,6.50
2022-09-09T12:54:02.010Z,3.30
2022-09-09T12:56:34.245Z,5.00
2022-09-09T12:59:03.138Z,7.80
2022-09-09T13:01:34.807Z,3.17
2022-09-09T13:04:03.637Z,4.13
2022-09-09T13:06:35.283Z,6.03
2022-09-09T13:09:05.449Z,7.53
2022-09-09T13:11:44.490Z,5.23
2022-09-09T13:14:38.343Z,6.10
2022-09-09T13:17:22.435Z,7.13
2022-09-09T13:19:54.231Z,5.00
2022-09-09T13:22:34.155Z,3.17
2022-09-09T13:25:29.978Z,3.73
2022-09-09T13:28:20.968Z,11.93
2022-09-09T13:31:09.050Z,5.30
2022-09-09T13:33:41.557Z,5.57
2022-09-09T13:36:15.479Z,4.37
2022-09-09T13:39:03.756Z,3.43
2022-09-09T13:41:38.021Z,4.60
2022-09-09T13:44:07.708Z,3.27
2022-09-09T13:46:42.622Z,3.83
2022-09-09T13:49:10.273Z,2.83
2022-09-09T13:51:49.030Z,3.20
2022-09-09T13:54:21.344Z,2.73
2022-09-09T13:56:50.816Z,2.57
2022-09-09T13:59:21.412Z,5.20
2022-09-09T14:01:50.311Z,3.70
2022-09-09T14:04:18.599Z,3.50
2022-09-09T14:06:46.534Z,4.53
2022-09-09T14:09:19.150Z,6.80
2022-09-09T14:11:48.128Z,4.80
2022-09-09T14:14:17.516Z,7.40
2022-09-09T14:16:45.694Z,4.77
2022-09-09T14:19:13.652Z,5.60
2022-09-09T14:21:41.367Z,3.37
2022-09-09T14:24:09.541Z,5.33
2022-09-09T14:26:37.788Z,3.90
2022-09-09T14:29:05.488Z,3.67
2022-09-09T14:31:33.737Z,7.43
2022-09-09T14:34:01.401Z,4.90
2022-09-09T14:36:28.952Z,4.73
2022-09-09T14:38:56.605Z,3.53
2022-09-09T14:41:24.593Z,5.13
2022-09-09T14:43:53.040Z,3.70
2022-09-09T14:46:22.709Z,9.20
2022-09-09T14:48:50.787Z,4.60
2022-09-09T14:51:29.306Z,4.70
2022-09-09T14:54:00.580Z,4.07
2022-09-09T14:56:37.020Z,5.73
2022-09-09T14:59:05.564Z,6.17
2022-09-09T15:01:33.682Z,5.60
2022-09-09T15:04:06.349Z,4.03
2022-09-09T15:06:40.149Z,4.10
2022-09-09T15:09:07.992Z,7.80
2022-09-09T15:11:39.231Z,4.50
2022-09-09T15:14:10.619Z,4.30
2022-09-09T15:16:41.148Z,3.90
2022-09-09T15:19:10.322Z,8.70
2022-09-09T15:21:39.498Z,5.07
2022-09-09T15:24:09.342Z,4.07
2022-09-09T15:26:39.685Z,5.37
2022-09-09T15:29:09.579Z,2.50
2022-09-09T15:31:38.300Z,2.67
2022-09-09T15:34:10.393Z,2.80
2022-09-09T15:36:43.869Z,3.20
2022-09-09T15:39:17.855Z,3.13
2022-09-09T15:41:49.679Z,3.20
2022-09-09T15:44:20.086Z,3.13
2022-09-09T15:46:57.640Z,3.30
2022-09-09T15:49:27.618Z,2.93
2022-09-09T15:52:04.653Z,4.80
2022-09-09T15:54:40.146Z,7.37
2022-09-09T15:57:13.570Z,4.30
2022-09-09T15:59:41.527Z,5.03
2022-09-09T16:02:11.221Z,5.00
2022-09-09T16:04:39.008Z,4.90
2022-09-09T16:07:07.812Z,4.60
2022-09-09T16:09:38.171Z,3.37
2022-09-09T16:12:11.038Z,6.00
2022-09-09T16:14:39.929Z,5.17
2022-09-09T16:17:08.335Z,4.10
2022-09-09T16:19:36.329Z,7.30
2022-09-09T16:22:07.538Z,3.23
2022-09-09T16:24:35.436Z,3.50
2022-09-09T16:27:03.179Z,4.20
2022-09-09T16:29:30.876Z,3.00
2022-09-09T16:32:03.300Z,2.97
2022-09-09T16:34:31.944Z,2.47
2022-09-09T16:36:59.561Z,3.97
2022-09-09T16:39:27.182Z,3.43
2022-09-09T16:41:54.877Z,7.73
2022-09-09T16:44:23.334Z,2.67
2022-09-09T16:46:58.060Z,3.93
2022-09-09T16:49:29.505Z,5.60
2022-09-09T16:52:00.756Z,2.87
2022-09-09T16:54:29.979Z,5.37
2022-09-09T16:56:58.646Z,4.87
2022-09-09T16:59:27.572Z,4.67
2022-09-09T17:01:55.690Z,4.20
2022-09-09T17:04:29.039Z,2.20
2022-09-09T17:06:58.621Z,5.40
2022-09-09T17:09:32.324Z,3.30
2022-09-09T17:12:01.061Z,3.93
2022-09-09T17:14:28.846Z,5.20
2022-09-09T17:17:05.241Z,2.67
2022-09-09T17:19:41.581Z,2.80
2022-09-09T17:22:17.790Z,3.10
2022-09-09T17:24:46.779Z,3.50
2022-09-09T17:27:15.221Z,3.40
2022-09-09T17:29:44.391Z,3.73
2022-09-09T17:32:12.042Z,9.20
2022-09-09T17:34:40.051Z,5.53
2022-09-09T17:37:07.860Z,3.70
2022-09-09T17:39:35.619Z,7.30
2022-09-09T17:42:04.310Z,4.57
2022-09-09T17:44:33.454Z,6.40
2022-09-09T17:47:01.408Z,5.17
2022-09-09T17:49:29.059Z,4.67
2022-09-09T17:51:57.195Z,4.73
2022-09-09T17:54:24.937Z,4.63
2022-09-09T17:56:53.551Z,5.20
2022-09-09T17:59:21.563Z,5.83
2022-09-09T18:01:51.267Z,5.07
2022-09-09T18:04:21.016Z,3.73
2022-09-09T18:06:54.279Z,4.20
2022-09-09T18:09:27.015Z,4.47
2022-09-09T18:11:59.228Z,6.10
2022-09-09T18:14:34.020Z,4.63
2022-09-09T18:17:04.350Z,5.20
2022-09-09T18:19:34.569Z,7.03
2022-09-09T18:22:06.973Z,5.83
2022-09-09T18:24:36.436Z,4.80
2022-09-09T18:27:04.579Z,6.40
2022-09-09T18:29:32.335Z,10.20
2022-09-09T18:32:00.205Z,6.53
2022-09-09T18:34:30.127Z,4.80
2022-09-09T18:36:59.764Z,5.40
2022-09-09T18:39:30.298Z,4.87
2022-09-09T18:42:02.643Z,5.80
2022-09-09T18:44:35.725Z,8.33
2022-09-09T18:47:04.229Z,12.87
2022-09-09T18:49:33.386Z,5.73
2022-09-09T18:52:03.046Z,7.40
2022-09-09T18:54:33.499Z,5.70
2022-09-09T18:57:01.953Z,5.23
2022-09-09T18:59:31.257Z,4.13
2022-09-09T19:01:59.110Z,9.90
2022-09-09T19:04:27.650Z,5.70
2022-09-09T19:06:58.954Z,7.70
2022-09-09T19:09:34.106Z,4.10
2022-09-09T19:12:02.977Z,8.47
2022-09-09T19:14:31.073Z,5.90
2022-09-09T19:16:59.421Z,6.13
2022-09-09T19:19:33.045Z,7.90
2022-09-09T19:22:03.145Z,4.93
2022-09-09T19:24:34.682Z,5.90
2022-09-09T19:27:07.054Z,4.23
2022-09-09T19:29:42.427Z,6.23
2022-09-09T19:34:58.738Z,4.00
2022-09-09T19:37:26.441Z,5.87
2022-09-09T19:39:54.042Z,6.13
2022-09-09T19:42:21.828Z,3.80
2022-09-09T19:44:50.963Z,5.00
2022-09-09T19:47:19.577Z,8.57
2022-09-09T19:49:47.974Z,5.20
2022-09-09T19:52:18.279Z,7.07
2022-09-09T19:54:47.131Z,5.10
2022-09-09T19:57:14.772Z,8.40
2022-09-09T19:59:42.623Z,4.13
2022-09-09T20:02:15.732Z,4.00
2022-09-09T20:04:44.662Z,9.73
2022-09-09T20:07:12.543Z,5.70
2022-09-09T20:09:40.099Z,7.13
2022-09-09T20:12:10.047Z,5.17
2022-09-09T20:14:39.829Z,7.90
2022-09-09T20:17:10.191Z,8.23
2022-09-09T20:19:39.959Z,5.90
2022-09-09T20:22:07.808Z,6.10
2022-09-09T20:24:37.082Z,3.50
2022-09-09T20:27:07.103Z,5.60
2022-09-09T20:29:34.805Z,5.37
2022-09-09T20:32:02.787Z,4.53
2022-09-09T20:34:30.442Z,4.50
2022-09-09T20:36:59.390Z,5.07
2022-09-09T20:39:27.932Z,9.33
2022-09-09T20:41:55.545Z,7.13
2022-09-09T20:44:24.811Z,5.70
2022-09-09T20:47:00.208Z,4.77
2022-09-09T20:49:29.453Z,5.10
2022-09-09T20:51:57.355Z,6.10
2022-09-09T20:54:30.696Z,5.43
2022-09-09T20:57:00.463Z,4.57
2022-09-09T20:59:34.829Z,9.47
2022-09-09T21:02:03.413Z,7.13
2022-09-09T21:04:31.597Z,6.03
2022-09-09T21:06:59.280Z,7.43
2022-09-09T21:09:26.982Z,6.53
2022-09-09T21:11:54.689Z,6.33
2022-09-09T21:14:22.781Z,4.90
2022-09-09T21:16:50.896Z,7.30
2022-09-09T21:19:18.789Z,6.80
2022-09-09T21:21:47.990Z,4.53
2022-09-09T21:24:16.344Z,5.00
2022-09-09T21:26:44.042Z,6.10
2022-09-09T21:29:13.205Z,6.83
2022-09-09T21:31:41.067Z,4.83
2022-09-09T21:34:09.877Z,5.87
2022-09-09T21:36:37.575Z,5.77
2022-09-09T21:39:05.431Z,5.97
2022-09-09T21:41:33.034Z,4.80
2022-09-09T21:44:01.259Z,4.27
2022-09-09T21:46:29.434Z,5.70
2022-09-09T21:48:58.884Z,2.63
2022-09-09T21:51:26.460Z,5.10
2022-09-09T21:53:58.933Z,5.33
2022-09-09T21:56:26.964Z,5.50
2022-09-09T21:59:09.719Z,4.73
2022-09-09T22:01:37.430Z,8.87
2022-09-09T22:04:05.051Z,5.83
2022-09-09T22:06:33.259Z,7.00
2022-09-09T22:09:02.890Z,4.23
2022-09-09T22:11:31.540Z,9.03
2022-09-09T22:13:59.198Z,6.10
2022-09-09T22:16:26.876Z,3.13
2022-09-09T22:19:00.476Z,7.17
2022-09-09T22:21:33.112Z,5.47
2022-09-09T22:24:06.159Z,3.90
2022-09-09T22:26:38.452Z,7.97
2022-09-09T22:29:07.443Z,6.77
2022-09-09T22:31:36.659Z,5.77
2022-09-09T22:34:06.068Z,5.00
2022-09-09T22:36:34.360Z,6.13
2022-09-09T22:39:02.070Z,5.23
2022-09-09T22:41:30.133Z,8.73
2022-09-09T22:43:59.138Z,6.37
2022-09-09T22:46:26.954Z,7.03
2022-09-09T22:48:54.575Z,6.60
2022-09-09T22:51:22.845Z,5.23
2022-09-09T22:53:50.476Z,5.30
2022-09-09T22:56:20.497Z,5.03
2022-09-09T22:58:56.451Z,6.93
2022-09-09T23:01:27.436Z,4.53
2022-09-09T23:04:02.890Z,4.80
2022-09-09T23:06:31.838Z,4.83
2022-09-09T23:09:03.810Z,7.10
2022-09-09T23:11:37.099Z,4.50
2022-09-09T23:14:11.568Z,6.10
2022-09-09T23:16:45.458Z,6.30
2022-09-09T23:19:17.813Z,10.83
2022-09-09T23:21:47.191Z,7.73
2022-09-09T23:24:17.743Z,9.70
2022-09-09T23:26:46.563Z,12.83
2022-09-09T23:29:15.681Z,5.40
2022-09-09T23:31:46.726Z,6.33
2022-09-09T23:34:15.079Z,4.97
2022-09-09T23:36:43.002Z,11.67
2022-09-09T23:39:13.372Z,7.63
2022-09-09T23:41:41.388Z,7.07
2022-09-09T23:44:10.170Z,5.33
2022-09-09T23:46:37.807Z,4.03
2022-09-09T23:49:08.376Z,6.10
2022-09-09T23:51:37.895Z,9.40
2022-09-09T23:54:06.785Z,7.30
2022-09-09T23:56:42.548Z,6.80
2022-09-09T23:59:10.946Z,4.30
